EDDFLEBL

Guest
Details From EDDF - Frankfurt Am Main
To LEBL - Barcelona El Prat
Flight Number -
Tags Generated
Created
Modified
Stats Distance 590 nm / 1,093 km
Max Altitude 0 ft / 0 m
Waypoints 4
Social Downloads 2
Likes 0
Share VATSIM

Download

Looking for another format? Having issues loading an existing format? Contact us
Advertisement - Login to hide

Notes

Generated

Route

EDDF LSE BCN LEBL

ID Type Via Altitude Latitude Longitude Leg Dist Tot Dist Heading (true) Name
O EDDF APT - 0 ft / 0 m 50.02754˚ 8.53417˚ - 0 nm - -
LSE VOR - 0 ft / 0 m 45.74553˚ 5.09058˚ 292 nm 292 nm 210° / 207° LYON SAINT EXUPERY VOR-DME
BCN VOR - 0 ft / 0 m 41.30712˚ 2.10781˚ 296 nm 588 nm 207° / 205° BARCELONA VOR-DME
O LEBL APT - 0 ft / 0 m 41.28777˚ 2.08484˚ 1 nm 590 nm 222° / 222° -

Altitude Profile

Advertisement - Login to hide

Weather


0- 5 10 15 20 25 30 35+ Temperature / ° C

Clouds and Precipitation
Forecast for 2018-05-26 06:00 UTC. Updated an hour ago

Ground ~20,000 ft ~40,000 ft Winds

EDDF

Details ICAO EDDF (FRA)
Name Frankfurt am Main
Region Germany - Civil
Timezone Europe/Berlin (UTC+2.0)
Stats Elevation 355 ft / 108 m (AMSL)
Location 50.032604° 8.540641°
Runways 4
Magnetic Variation 2.400° E

METAR

EDDF 260620Z 05009KT CAVOK 20/15 Q1020 NOSIG

Decode

TAF

TAF EDDF 260500Z 2606/2712 05007KT 9999 FEW025= TAF EDDL 260500Z 2606/2712 VRB03KT CAVOK BECMG 2607/2609 07008KT BECMG 2617/2620 VRB03KT

Decode

Departure Runways

ID Width Length Bearing (true) Bearing (mag) Surface Threshold Offset Overrun Length
07C 197 ft / 60 m 13,091 ft / 3,990 m 69.57° 67.17° Asphalt 0 ft / 0 m 230 ft / 70 m
07L 148 ft / 45 m 9,164 ft / 2,793 m 69.54° 67.14° Concrete 0 ft / 0 m 328 ft / 100 m
07R 148 ft / 45 m 13,094 ft / 3,991 m 69.57° 67.17° Asphalt 0 ft / 0 m 230 ft / 70 m
18 148 ft / 45 m 13,056 ft / 3,980 m 179.84° 177.44° Concrete 0 ft / 0 m 49 ft / 15 m
25C 197 ft / 60 m 13,091 ft / 3,990 m 249.61° 247.21° Asphalt 0 ft / 0 m 1,152 ft / 351 m
25L 148 ft / 45 m 13,094 ft / 3,991 m 249.61° 247.21° Asphalt 0 ft / 0 m 2,051 ft / 625 m
25R 148 ft / 45 m 9,164 ft / 2,793 m 249.57° 247.17° Concrete 0 ft / 0 m 328 ft / 100 m
36 148 ft / 45 m 13,056 ft / 3,980 m 359.84° 357.44° Concrete 0 ft / 0 m 190 ft / 58 m

LEBL

Details ICAO LEBL (BCN)
Name Barcelona - El Prat
Region Spain
Timezone Europe/Madrid (UTC+2.0)
Stats Elevation 14 ft / 4 m (AMSL)
Location 41.295108° 2.088030°
Runways 3
Magnetic Variation 0.870° E

METAR

LEBL 260630Z 06015KT 9999 FEW020 SCT030 19/16 Q1015 NOSIG

Decode

TAF

TAF LEBL 260500Z 2606/2706 07010KT 9999 FEW025 TX24/2612Z TN18/2706Z TEMPO 2609/2618 06015G25KT

Decode

Destination Runways

ID Width Length Bearing (true) Bearing (mag) Surface Threshold Offset Overrun Length
02 148 ft / 45 m 8,343 ft / 2,543 m 18.93° 18.06° Asphalt 0 ft / 0 m 348 ft / 106 m
07L 197 ft / 60 m 10,983 ft / 3,348 m 65.49° 64.62° Asphalt 1,411 ft / 430 m 1,161 ft / 354 m
07R 197 ft / 60 m 8,718 ft / 2,657 m 65.49° 64.62° Asphalt 0 ft / 0 m 207 ft / 63 m
20 148 ft / 45 m 8,343 ft / 2,543 m 198.93° 198.06° Asphalt 0 ft / 0 m 200 ft / 61 m
25L 197 ft / 60 m 8,718 ft / 2,657 m 245.51° 244.64° Asphalt 0 ft / 0 m 203 ft / 62 m
25R 197 ft / 60 m 10,983 ft / 3,348 m 245.51° 244.64° Asphalt 0 ft / 0 m 522 ft / 159 m

Approach Navaids

Runway Type Ident Frequency Range Bearing (true) Bearing (mag) Slope Elevation
02 Localiser BLT 108.75 MHz 25 nm / 46 km 19.10° 18.23° - 12 ft / 4 m (AMSL)
02 Glidescope BLT 108.75 MHz 20 nm / 37 km 20.00° 19.13° 3.00° 12 ft / 4 m (AMSL)
02 DME BLT 108.75 MHz 25 nm / 46 km - - - 12 ft / 4 m (AMSL)
07L Localiser QAA 110.30 MHz 18 nm / 33 km 65.52° 64.65° - 14 ft / 4 m (AMSL)
07L Glidescope QAA 110.30 MHz 10 nm / 19 km 65.50° 64.63° 3.00° 14 ft / 4 m (AMSL)
07L DME QAA 110.30 MHz 18 nm / 33 km - - - 13 ft / 4 m (AMSL)
07R Localiser BLE 110.75 MHz 18 nm / 33 km 65.51° 64.64° - 14 ft / 4 m (AMSL)
07R Glidescope BLE 110.75 MHz 10 nm / 19 km 65.50° 64.63° 3.00° 14 ft / 4 m (AMSL)
07R DME BLE 110.75 MHz 18 nm / 33 km - - - 30 ft / 9 m (AMSL)
25L Localiser BLW 111.50 MHz 18 nm / 33 km 245.48° 244.61° - 14 ft / 4 m (AMSL)
25L Glidescope BLW 111.50 MHz 10 nm / 19 km 245.50° 244.63° 3.00° 14 ft / 4 m (AMSL)
25L DME BLW 111.50 MHz 18 nm / 33 km - - - 14 ft / 4 m (AMSL)
25R Localiser BCA 109.50 MHz 18 nm / 33 km 245.47° 244.60° - 14 ft / 4 m (AMSL)
25R Glidescope BCA 109.50 MHz 10 nm / 19 km 245.50° 244.63° 3.00° 30 ft / 9 m (AMSL)
25R DME BCA 109.50 MHz 18 nm / 33 km - - - 30 ft / 9 m (AMSL)

Popular Alternatives